Terminal Aerodrome Forecast
Issued by NWS Wilmington, OH

Current Version | Previous Version | Text Only | Print | Product List | Glossary Off
Versions: 1 2 3 4 5 6 7 8 9 10 11 12 13 14 15 16 17 18 19 20 21 22 23 24 25 26 27 28 29

079
FTUS41 KILN 261459 AAD
TAFCVG
TAF AMD
KCVG 261459Z 2615/2718 31012G19KT P6SM +SHRA VCTS SCT018CB BKN035
      OVC050
      TEMPO 2615/2617 2SM TSRA BKN018CB OVC025
     FM261700 28012G18KT P6SM BKN025
     FM262000 27010KT P6SM SKC
     FM270000 23004KT P6SM SKC
     FM271500 24012G18KT P6SM SKC=

USA.gov is the U.S. government's official web portal to all federal, state and local government web resources and services.